createdAt,value
2023-04-27T00:00:23.130Z,101590.34
2023-04-27T00:02:48.955Z,101587.84
2023-04-27T00:05:14.813Z,101593.94
2023-04-27T00:07:40.595Z,101588.69
2023-04-27T00:10:07.118Z,101595.88
2023-04-27T00:12:32.767Z,101595.88
2023-04-27T00:14:58.676Z,101596.69
2023-04-27T00:17:24.354Z,101590.59
2023-04-27T00:19:50.194Z,101595.88
2023-04-27T00:22:15.931Z,101604.16
2023-04-27T00:24:41.603Z,101596.13
2023-04-27T00:27:07.254Z,101587.84
2023-04-27T00:29:32.913Z,101599.72
2023-04-27T00:31:58.622Z,101609.91
2023-04-27T00:34:24.366Z,101602.50
2023-04-27T00:36:50.014Z,101607.16
2023-04-27T00:39:16.381Z,101615.19
2023-04-27T00:41:42.126Z,101617.94
2023-04-27T00:44:07.793Z,101616.28
2023-04-27T00:46:34.030Z,101609.91
2023-04-27T00:49:00.181Z,101601.63
2023-04-27T00:51:29.314Z,101593.34
2023-04-27T00:53:57.308Z,101600.81
2023-04-27T00:56:23.061Z,101595.88
2023-04-27T00:58:49.029Z,101601.63
2023-04-27T01:01:14.840Z,101598.88
2023-04-27T01:03:41.151Z,101604.41
2023-04-27T01:06:07.015Z,101600.81
2023-04-27T01:08:32.736Z,101598.03
2023-04-27T01:10:58.427Z,101598.31
2023-04-27T01:13:24.134Z,101598.88
2023-04-27T01:15:49.891Z,101603.56
2023-04-27T01:18:15.530Z,101605.50
2023-04-27T01:20:41.403Z,101603.56
2023-04-27T01:23:07.045Z,101599.16
2023-04-27T01:25:32.916Z,101598.03
2023-04-27T01:27:58.638Z,101605.50
2023-04-27T01:30:24.358Z,101600.81
2023-04-27T01:32:50.338Z,101599.97
2023-04-27T01:35:16.209Z,101605.50
2023-04-27T01:37:41.885Z,101605.50
2023-04-27T01:40:07.947Z,101606.59
2023-04-27T01:42:33.613Z,101608.25
2023-04-27T01:44:59.877Z,101614.88
2023-04-27T01:47:26.698Z,101615.72
2023-04-27T01:49:52.433Z,101613.78
2023-04-27T01:52:18.179Z,101614.88
2023-04-27T01:54:43.827Z,101619.56
2023-04-27T01:57:09.523Z,101620.41
2023-04-27T01:59:35.218Z,101615.72
2023-04-27T02:02:00.961Z,101614.88
2023-04-27T02:04:26.741Z,101628.69
2023-04-27T02:06:52.529Z,101624.00
2023-04-27T02:09:18.176Z,101624.81
2023-04-27T02:11:43.848Z,101622.34
2023-04-27T02:14:09.514Z,101620.41
2023-04-27T02:16:35.341Z,101618.47
2023-04-27T02:19:01.111Z,101614.88
2023-04-27T02:21:27.674Z,101623.16
2023-04-27T02:23:53.430Z,101627.84
2023-04-27T02:26:20.046Z,101630.59
2023-04-27T02:28:46.799Z,101625.09
2023-04-27T02:31:13.792Z,101621.22
2023-04-27T02:33:40.516Z,101629.50
2023-04-27T02:36:07.607Z,101625.09
2023-04-27T02:38:33.382Z,101620.41
2023-04-27T02:40:59.111Z,101625.09
2023-04-27T02:43:24.750Z,101627.03
2023-04-27T02:45:50.503Z,101616.81
2023-04-27T02:48:16.145Z,101616.81
2023-04-27T02:50:42.456Z,101614.06
2023-04-27T02:53:08.565Z,101608.53
2023-04-27T02:55:34.356Z,101602.19
2023-04-27T02:58:00.067Z,101598.59
2023-04-27T03:00:26.175Z,101602.19
2023-04-27T03:02:52.016Z,101598.59
2023-04-27T03:05:18.033Z,101600.50
2023-04-27T03:07:43.783Z,101598.59
2023-04-27T03:10:09.843Z,101592.22
2023-04-27T03:12:35.566Z,101592.22
2023-04-27T03:15:01.280Z,101592.22
2023-04-27T03:17:27.179Z,101591.16
2023-04-27T03:19:52.998Z,101604.13
2023-04-27T03:22:18.698Z,101606.88
2023-04-27T03:24:44.464Z,101602.41
2023-04-27T03:27:10.991Z,101608.78
2023-04-27T03:29:36.640Z,101606.88
2023-04-27T03:32:03.690Z,101605.19
2023-04-27T03:34:29.825Z,101607.94
2023-04-27T03:36:56.030Z,101600.50
2023-04-27T03:39:22.096Z,101607.69
2023-04-27T03:41:47.737Z,101604.13
2023-04-27T03:44:13.414Z,101602.19
2023-04-27T03:46:39.065Z,101601.34
2023-04-27T03:49:04.721Z,101606.88
2023-04-27T03:51:32.555Z,101607.13
2023-04-27T03:53:58.450Z,101613.47
2023-04-27T03:56:24.225Z,101605.19
2023-04-27T03:58:49.885Z,101607.94
2023-04-27T04:01:15.923Z,101618.97
2023-04-27T04:03:42.070Z,101618.97
2023-04-27T04:06:07.976Z,101629.78
2023-04-27T04:08:33.694Z,101628.09
2023-04-27T04:10:59.972Z,101631.72
2023-04-27T04:13:26.170Z,101630.03
2023-04-27T04:16:08.748Z,101633.59
2023-04-27T04:18:35.326Z,101636.38
2023-04-27T04:21:01.461Z,101632.78
2023-04-27T04:23:27.215Z,101629.19
2023-04-27T04:25:55.558Z,101626.44
2023-04-27T04:28:21.744Z,101636.38
2023-04-27T04:30:47.461Z,101638.56
2023-04-27T04:33:13.096Z,101635.81
2023-04-27T04:35:40.636Z,101636.63
2023-04-27T04:38:06.578Z,101637.47
2023-04-27T04:40:32.280Z,101633.59
2023-04-27T04:42:57.925Z,101648.50
2023-04-27T04:45:23.592Z,101646.56
2023-04-27T04:47:49.389Z,101643.81
2023-04-27T04:50:15.098Z,101637.47
2023-04-27T04:52:40.748Z,101642.75
2023-04-27T04:55:06.564Z,101640.00
2023-04-27T04:57:32.249Z,101642.16
2023-04-27T04:59:58.047Z,101649.63
2023-04-27T05:02:23.826Z,101650.72
2023-04-27T05:04:51.387Z,101654.31
2023-04-27T05:07:20.183Z,101646.03
2023-04-27T05:09:49.062Z,101648.78
2023-04-27T05:12:14.706Z,101663.41
2023-04-27T05:14:40.350Z,101657.06
2023-04-27T05:17:06.033Z,101655.13
2023-04-27T05:19:31.673Z,101661.75
2023-04-27T05:21:57.896Z,101661.75
2023-04-27T05:24:25.463Z,101652.38
2023-04-27T05:26:51.116Z,101649.63
2023-04-27T05:29:16.893Z,101655.97
2023-04-27T05:31:42.631Z,101662.59
2023-04-27T05:34:09.154Z,101665.34
2023-04-27T05:36:35.444Z,101666.44
2023-04-27T05:39:01.912Z,101662.59
2023-04-27T05:41:29.015Z,101674.72
2023-04-27T05:43:54.674Z,101673.41
2023-04-27T05:46:20.678Z,101674.91
2023-04-27T05:48:46.457Z,101673.13
2023-04-27T05:51:12.542Z,101674.72
2023-04-27T05:53:38.227Z,101676.75
2023-04-27T05:56:05.882Z,101683.00
2023-04-27T05:58:32.393Z,101685.00
2023-04-27T06:00:59.119Z,101682.75
2023-04-27T06:03:25.370Z,101679.38
2023-04-27T06:05:58.108Z,101688.66
2023-04-27T06:08:24.611Z,101696.16
2023-04-27T06:10:50.577Z,101692.06
2023-04-27T06:13:16.690Z,101687.09
2023-04-27T06:15:42.770Z,101690.44
2023-04-27T06:18:08.498Z,101692.13
2023-04-27T06:20:34.278Z,101681.06
2023-04-27T06:23:00.465Z,101684.16
2023-04-27T06:25:27.807Z,101686.03
2023-04-27T06:27:55.488Z,101686.03
2023-04-27T06:30:21.785Z,101676.69
2023-04-27T06:32:48.103Z,101677.53
2023-04-27T06:35:13.815Z,101673.94
2023-04-27T06:37:39.479Z,101681.13
2023-04-27T06:40:06.092Z,101678.91
2023-04-27T06:42:31.757Z,101682.53
2023-04-27T06:44:57.906Z,101689.44
2023-04-27T06:47:23.617Z,101682.25
2023-04-27T06:49:49.861Z,101687.78
2023-04-27T06:52:16.100Z,101685.84
2023-04-27T06:54:42.012Z,101691.69
2023-04-27T06:57:07.681Z,101681.75
2023-04-27T06:59:33.453Z,101686.16
2023-04-27T07:01:59.292Z,101673.47
2023-04-27T07:04:25.290Z,101682.59
2023-04-27T07:06:51.008Z,101680.72
2023-04-27T07:09:26.444Z,101678.91
2023-04-27T07:11:53.038Z,101682.00
2023-04-27T07:14:18.692Z,101680.34
2023-04-27T07:16:44.370Z,101678.91
2023-04-27T07:19:10.248Z,101681.16
2023-04-27T07:21:36.038Z,101679.50
2023-04-27T07:24:02.195Z,101681.69
2023-04-27T07:26:27.839Z,101670.94
2023-04-27T07:28:54.281Z,101676.47
2023-04-27T07:31:20.023Z,101685.59
2023-04-27T07:33:45.885Z,101678.69
2023-04-27T07:36:11.526Z,101677.31
2023-04-27T07:38:37.653Z,101683.09
2023-04-27T07:41:04.862Z,101683.66
2023-04-27T07:43:32.138Z,101686.69
2023-04-27T07:45:57.834Z,101696.63
2023-04-27T07:48:23.944Z,101683.91
2023-04-27T07:50:50.165Z,101679.50
2023-04-27T07:53:16.204Z,101679.50
2023-04-27T07:55:43.682Z,101678.91
2023-04-27T07:58:09.779Z,101670.13
2023-04-27T08:00:35.737Z,101671.78
2023-04-27T08:03:01.935Z,101672.59
2023-04-27T08:05:28.178Z,101666.84
2023-04-27T08:07:54.830Z,101670.16
2023-04-27T08:10:20.796Z,101670.16
2023-04-27T08:12:46.474Z,101669.09
2023-04-27T08:15:12.220Z,101663.81
2023-04-27T08:17:40.924Z,101668.50
2023-04-27T08:20:10.571Z,101661.06
2023-04-27T08:22:37.512Z,101659.94
2023-04-27T08:25:03.841Z,101653.59
2023-04-27T08:27:30.136Z,101656.38
2023-04-27T08:29:55.790Z,101651.66
2023-04-27T08:32:21.454Z,101644.75
2023-04-27T08:34:47.152Z,101648.56
2023-04-27T08:37:12.919Z,101644.16
2023-04-27T08:39:38.608Z,101649.16
2023-04-27T08:42:12.100Z,101643.53
2023-04-27T08:44:41.688Z,101654.50
2023-04-27T08:47:08.251Z,101653.47
2023-04-27T08:49:34.621Z,101644.66
2023-04-27T08:52:01.141Z,101648.00
2023-04-27T08:54:26.871Z,101641.97
2023-04-27T08:56:52.542Z,101653.84
2023-04-27T08:59:18.195Z,101638.94
2023-04-27T09:01:45.674Z,101643.34
2023-04-27T09:04:11.610Z,101639.50
2023-04-27T09:06:37.517Z,101632.91
2023-04-27T09:09:03.338Z,101635.91
2023-04-27T09:14:22.014Z,101628.25
2023-04-27T09:16:56.728Z,101634.88
2023-04-27T09:19:26.118Z,101627.97
2023-04-27T09:22:03.759Z,101632.63
2023-04-27T09:24:29.752Z,101633.22
2023-04-27T09:26:55.402Z,101637.34
2023-04-27T09:29:31.659Z,101632.66
2023-04-27T09:31:57.437Z,101627.13
2023-04-27T09:34:23.230Z,101631.56
2023-04-27T09:36:49.142Z,101626.03
2023-04-27T09:39:15.575Z,101622.22
2023-04-27T09:41:41.419Z,101623.94
2023-04-27T09:44:07.800Z,101622.69
2023-04-27T09:46:33.758Z,101623.56
2023-04-27T09:49:00.646Z,101630.19
2023-04-27T09:51:27.866Z,101619.97
2023-04-27T09:53:55.813Z,101615.00
2023-04-27T09:57:01.648Z,101613.94
2023-04-27T09:59:40.014Z,101614.16
2023-04-27T10:02:20.817Z,101613.09
2023-04-27T10:05:13.651Z,101601.91
2023-04-27T10:07:40.455Z,101597.59
2023-04-27T10:10:06.553Z,101599.84
2023-04-27T10:12:35.587Z,101598.75
2023-04-27T10:15:12.251Z,101596.25
2023-04-27T10:17:37.995Z,101597.09
2023-04-27T10:20:06.736Z,101585.78
2023-04-27T10:22:41.329Z,101581.94
2023-04-27T10:25:28.819Z,101583.28
2023-04-27T10:27:57.288Z,101574.16
2023-04-27T10:30:23.612Z,101573.38
2023-04-27T10:32:51.079Z,101583.31
2023-04-27T10:35:16.980Z,101580.31
2023-04-27T10:37:42.988Z,101581.38
2023-04-27T10:40:13.757Z,101577.78
2023-04-27T10:42:40.652Z,101576.69
2023-04-27T10:45:07.291Z,101569.00
2023-04-27T10:47:37.620Z,101565.41
2023-04-27T10:50:05.265Z,101570.09
2023-04-27T10:52:31.013Z,101567.34
2023-04-27T10:54:56.873Z,101558.22
2023-04-27T10:57:22.574Z,101561.53
2023-04-27T10:59:50.860Z,101557.94
2023-04-27T11:02:16.526Z,101558.78
2023-04-27T11:04:42.326Z,101575.63
2023-04-27T11:07:09.350Z,101567.34
2023-04-27T11:09:37.241Z,101563.47
2023-04-27T11:12:06.271Z,101561.53
2023-04-27T11:14:31.951Z,101567.06
2023-04-27T11:16:57.807Z,101561.53
2023-04-27T11:19:23.445Z,101553.25
2023-04-27T11:21:49.130Z,101558.78
2023-04-27T11:24:15.565Z,101551.59
2023-04-27T11:26:41.418Z,101554.34
2023-04-27T11:29:11.468Z,101552.44
2023-04-27T11:31:41.105Z,101548.84
2023-04-27T11:34:07.896Z,101543.84
2023-04-27T11:36:33.686Z,101551.84
2023-04-27T11:38:59.420Z,101541.38
2023-04-27T11:41:34.294Z,101534.75
2023-04-27T11:44:05.548Z,101532.81
2023-04-27T11:46:31.246Z,101524.53
2023-04-27T11:49:05.420Z,101535.59
2023-04-27T11:51:32.349Z,101523.72
2023-04-27T11:54:04.332Z,101520.13
2023-04-27T11:56:39.092Z,101524.53
2023-04-27T11:59:05.121Z,101522.59
2023-04-27T12:01:38.270Z,101519.00
2023-04-27T12:04:04.499Z,101520.13
2023-04-27T12:06:33.245Z,101517.94
2023-04-27T12:08:59.360Z,101516.53
2023-04-27T12:11:26.908Z,101502.44
2023-04-27T12:13:53.249Z,101503.53
2023-04-27T12:16:21.318Z,101501.91
2023-04-27T12:18:48.630Z,101496.38
2023-04-27T12:21:14.796Z,101500.78
2023-04-27T12:23:40.805Z,101501.06
2023-04-27T12:26:06.539Z,101503.56
2023-04-27T12:28:32.262Z,101497.75
2023-04-27T12:30:58.106Z,101493.63
2023-04-27T12:33:24.076Z,101495.56
2023-04-27T12:35:49.790Z,101490.56
2023-04-27T12:38:15.567Z,101491.41
2023-04-27T12:40:41.288Z,101494.16
2023-04-27T12:43:08.041Z,101495.00
2023-04-27T12:45:33.688Z,101482.03
2023-04-27T12:48:03.748Z,101484.53
2023-04-27T12:50:31.297Z,101495.84
2023-04-27T12:52:56.935Z,101491.69
2023-04-27T12:55:33.116Z,101492.22
2023-04-27T12:58:00.249Z,101488.66
2023-04-27T13:00:25.992Z,101483.94
2023-04-27T13:02:51.980Z,101483.94
2023-04-27T13:05:17.747Z,101485.63
2023-04-27T13:07:43.402Z,101485.06
2023-04-27T13:10:10.757Z,101484.22
2023-04-27T13:12:36.457Z,101472.34
2023-04-27T13:15:02.435Z,101481.19
2023-04-27T13:17:28.096Z,101480.94
2023-04-27T13:19:53.758Z,101480.13
2023-04-27T13:22:20.165Z,101484.81
2023-04-27T13:24:46.155Z,101474.84
2023-04-27T13:27:11.821Z,101468.50
2023-04-27T13:29:37.523Z,101473.47
2023-04-27T13:32:03.251Z,101472.06
2023-04-27T13:34:29.471Z,101463.25
2023-04-27T13:36:55.134Z,101465.47
2023-04-27T13:39:21.299Z,101465.47
2023-04-27T13:41:47.138Z,101467.13
2023-04-27T13:44:12.887Z,101465.19
2023-04-27T13:46:38.729Z,101454.44
2023-04-27T13:49:04.412Z,101464.91
2023-04-27T13:51:30.268Z,101464.63
2023-04-27T13:53:55.905Z,101459.69
2023-04-27T13:56:21.727Z,101448.63
2023-04-27T13:58:47.400Z,101446.97
2023-04-27T14:01:13.080Z,101447.81
2023-04-27T14:03:39.841Z,101442.28
2023-04-27T14:06:07.461Z,101432.59
2023-04-27T14:08:33.134Z,101433.44
2023-04-27T14:10:58.813Z,101429.84
2023-04-27T14:13:24.921Z,101428.72
2023-04-27T14:15:50.579Z,101427.59
2023-04-27T14:18:16.296Z,101437.28
2023-04-27T14:20:43.611Z,101434.53
2023-04-27T14:23:10.343Z,101427.06
2023-04-27T14:25:36.105Z,101436.19
2023-04-27T14:28:03.308Z,101423.50
2023-04-27T14:30:29.205Z,101414.94
2023-04-27T14:32:55.075Z,101413.56
2023-04-27T14:35:22.757Z,101413.56
2023-04-27T14:37:50.026Z,101398.91
2023-04-27T14:40:15.680Z,101400.84
2023-04-27T14:42:41.326Z,101393.94
2023-04-27T14:45:07.669Z,101387.56
2023-04-27T14:47:33.359Z,101377.38
2023-04-27T14:49:59.061Z,101377.38
2023-04-27T14:52:24.733Z,101380.66
2023-04-27T14:54:50.385Z,101375.97
2023-04-27T14:57:16.034Z,101372.94
2023-04-27T14:59:41.681Z,101376.81
2023-04-27T15:02:07.325Z,101374.59
2023-04-27T15:04:34.641Z,101365.50
2023-04-27T15:07:00.646Z,101369.06
2023-04-27T15:09:26.507Z,101376.53
2023-04-27T15:11:52.206Z,101368.81
2023-04-27T15:14:17.890Z,101371.31
2023-04-27T15:16:43.527Z,101366.88
2023-04-27T15:19:09.181Z,101374.31
2023-04-27T15:21:34.909Z,101362.19
2023-04-27T15:24:00.567Z,101351.16
2023-04-27T15:26:26.394Z,101348.66
2023-04-27T15:28:53.669Z,101347.53
2023-04-27T15:31:19.341Z,101334.00
2023-04-27T15:33:45.008Z,101337.59
2023-04-27T15:36:10.763Z,101339.53
2023-04-27T15:38:36.442Z,101338.72
2023-04-27T15:41:02.183Z,101344.22
2023-04-27T15:43:27.835Z,101335.13
2023-04-27T15:45:54.042Z,101334.31
2023-04-27T15:48:19.679Z,101340.66
2023-04-27T15:50:45.883Z,101339.53
2023-04-27T15:53:11.993Z,101339.53
2023-04-27T15:55:37.652Z,101334.84
2023-04-27T15:58:03.315Z,101334.00
2023-04-27T16:00:29.119Z,101326.56
2023-04-27T16:02:54.958Z,101340.38
2023-04-27T16:05:20.774Z,101336.78
2023-04-27T16:07:46.443Z,101326.56
2023-04-27T16:10:12.887Z,101314.69
2023-04-27T16:12:38.680Z,101319.09
2023-04-27T16:15:04.738Z,101313.59
2023-04-27T16:17:32.766Z,101306.41
2023-04-27T16:19:58.460Z,101308.88
2023-04-27T16:22:24.101Z,101307.22
2023-04-27T16:24:49.771Z,101298.13
2023-04-27T16:27:17.138Z,101294.53
2023-04-27T16:29:42.915Z,101285.16
2023-04-27T16:32:09.782Z,101280.75
2023-04-27T16:34:36.417Z,101283.50
2023-04-27T16:37:02.060Z,101281.56
2023-04-27T16:39:27.713Z,101289.31
2023-04-27T16:41:53.383Z,101291.78
2023-04-27T16:44:19.070Z,101287.38
2023-04-27T16:46:44.911Z,101279.09
2023-04-27T16:49:10.562Z,101277.69
2023-04-27T16:51:36.217Z,101272.47
2023-04-27T16:54:02.102Z,101264.19
2023-04-27T16:56:29.425Z,101274.38
2023-04-27T16:58:55.249Z,101259.75
2023-04-27T17:01:22.454Z,101261.41
2023-04-27T17:03:48.300Z,101264.47
2023-04-27T17:06:13.998Z,101260.59
2023-04-27T17:08:39.667Z,101258.94
2023-04-27T17:11:08.781Z,101257.00
2023-04-27T17:13:34.652Z,101255.34
2023-04-27T17:16:00.329Z,101251.72
2023-04-27T17:18:26.256Z,101251.47
2023-04-27T17:20:52.369Z,101247.06
2023-04-27T17:23:18.233Z,101240.69
2023-04-27T17:25:43.878Z,101236.03
2023-04-27T17:28:09.996Z,101237.94
2023-04-27T17:30:35.774Z,101235.16
2023-04-27T17:33:02.371Z,101237.09
2023-04-27T17:35:28.601Z,101231.59
2023-04-27T17:37:54.260Z,101224.97
2023-04-27T17:40:20.138Z,101226.88
2023-04-27T17:42:46.798Z,101234.09
2023-04-27T17:45:12.440Z,101237.94
2023-04-27T17:47:38.091Z,101239.88
2023-04-27T17:50:03.980Z,101231.59
2023-04-27T17:52:29.630Z,101225.25
2023-04-27T17:54:55.330Z,101230.75
2023-04-27T17:57:21.540Z,101225.25
2023-04-27T17:59:47.180Z,101229.94
2023-04-27T18:02:12.883Z,101235.16
2023-04-27T18:04:38.630Z,101230.75
2023-04-27T18:07:04.363Z,101235.44
2023-04-27T18:09:32.859Z,101232.41
2023-04-27T18:11:59.059Z,101239.03
2023-04-27T18:14:25.175Z,101230.75
2023-04-27T18:16:50.906Z,101233.53
2023-04-27T18:19:16.955Z,101222.47
2023-04-27T18:21:42.872Z,101229.09
2023-04-27T18:24:08.884Z,101218.91
2023-04-27T18:26:35.944Z,101217.78
2023-04-27T18:29:02.252Z,101218.91
2023-04-27T18:31:28.014Z,101217.25
2023-04-27T18:33:53.908Z,101220.81
2023-04-27T18:36:20.055Z,101218.91
2023-04-27T18:38:47.416Z,101218.06
2023-04-27T18:41:13.650Z,101218.91
2023-04-27T18:43:39.321Z,101215.31
2023-04-27T18:46:05.168Z,101211.72
2023-04-27T18:48:31.499Z,101202.63
2023-04-27T18:50:57.202Z,101206.19
2023-04-27T18:53:23.111Z,101206.19
2023-04-27T18:55:48.752Z,101204.56
2023-04-27T18:58:14.420Z,101194.34
2023-04-27T19:00:40.072Z,101197.91
2023-04-27T19:03:06.080Z,101197.91
2023-04-27T19:05:32.155Z,101199.84
2023-04-27T19:07:57.957Z,101204.25
2023-04-27T19:10:23.632Z,101210.91
2023-04-27T19:12:49.350Z,101206.19
2023-04-27T19:15:15.114Z,101213.38
2023-04-27T19:17:40.902Z,101213.38
2023-04-27T19:20:07.881Z,101214.47
2023-04-27T19:22:35.898Z,101216.41
2023-04-27T19:25:03.503Z,101212.81
2023-04-27T19:27:29.262Z,101217.25
2023-04-27T19:29:56.728Z,101227.47
2023-04-27T19:32:26.517Z,101230.22
2023-04-27T19:34:54.195Z,101234.06
2023-04-27T19:37:19.929Z,101220.25
2023-04-27T19:39:46.114Z,101228.53
2023-04-27T19:42:11.796Z,101231.28
2023-04-27T19:44:37.446Z,101230.22
2023-04-27T19:47:03.125Z,101220.25
2023-04-27T19:49:31.807Z,101230.22
2023-04-27T19:51:58.486Z,101234.06
2023-04-27T19:54:24.140Z,101233.22
2023-04-27T19:56:49.781Z,101217.50
2023-04-27T19:59:15.447Z,101220.25
2023-04-27T20:01:41.377Z,101214.72
2023-04-27T20:04:07.271Z,101208.38
2023-04-27T20:06:33.497Z,101211.16
2023-04-27T20:08:59.224Z,101201.78
2023-04-27T20:11:24.902Z,101203.69
2023-04-27T20:13:50.634Z,101203.16
2023-04-27T20:16:17.525Z,101205.63
2023-04-27T20:18:44.435Z,101199.28
2023-04-27T20:21:10.595Z,101195.41
2023-04-27T20:23:36.552Z,101194.59
2023-04-27T20:26:02.301Z,101192.94
2023-04-27T20:28:29.862Z,101193.75
2023-04-27T20:30:56.165Z,101188.25
2023-04-27T20:33:21.983Z,101191.81
2023-04-27T20:35:47.696Z,101191.81
2023-04-27T20:38:13.334Z,101188.25
2023-04-27T20:40:39.202Z,101192.94
2023-04-27T20:43:04.866Z,101191.81
2023-04-27T20:45:30.535Z,101182.72
2023-04-27T20:47:56.667Z,101186.31
2023-04-27T20:50:22.777Z,101181.06
2023-04-27T20:52:48.434Z,101173.63
2023-04-27T20:55:14.270Z,101178.03
2023-04-27T20:57:40.050Z,101164.22
2023-04-27T21:00:09.071Z,101172.50
2023-04-27T21:02:35.460Z,101164.50
2023-04-27T21:05:01.186Z,101162.56
2023-04-27T21:07:27.087Z,101154.28
2023-04-27T21:09:52.753Z,101146.00
2023-04-27T21:12:18.407Z,101140.50
2023-04-27T21:14:44.310Z,101136.91
2023-04-27T21:17:10.308Z,101128.91
2023-04-27T21:19:36.126Z,101129.44
2023-04-27T21:22:02.056Z,101126.69
2023-04-27T21:24:27.736Z,101130.56
2023-04-27T21:26:53.365Z,101120.34
2023-04-27T21:29:19.014Z,101111.25
2023-04-27T21:31:44.679Z,101118.41
2023-04-27T21:34:10.373Z,101103.78
2023-04-27T21:36:36.539Z,101100.19
2023-04-27T21:39:02.219Z,101099.38
2023-04-27T21:41:27.910Z,101091.09
2023-04-27T21:43:53.567Z,101086.41
2023-04-27T21:46:19.316Z,101078.13
2023-04-27T21:48:44.963Z,101075.34
2023-04-27T21:51:10.595Z,101068.19
2023-04-27T21:53:36.390Z,101063.50
2023-04-27T21:56:02.065Z,101062.66
2023-04-27T21:58:27.779Z,101057.97
2023-04-27T22:00:53.447Z,101057.41
2023-04-27T22:03:19.238Z,101046.09
2023-04-27T22:05:47.939Z,101050.50
2023-04-27T22:08:13.737Z,101046.94
2023-04-27T22:10:39.440Z,101037.81
2023-04-27T22:13:17.709Z,101040.59
2023-04-27T22:15:45.193Z,101039.47
2023-04-27T22:18:11.331Z,101037.81
2023-04-27T22:20:37.633Z,101031.47
2023-04-27T22:23:03.306Z,101028.72
2023-04-27T22:25:29.058Z,101025.97
2023-04-27T22:27:54.803Z,101024.84
2023-04-27T22:30:20.438Z,101020.44
2023-04-27T22:32:46.578Z,101016.56
2023-04-27T22:35:24.894Z,101003.88
2023-04-27T22:37:51.822Z,101011.06
2023-04-27T22:40:17.523Z,101022.09
2023-04-27T22:42:43.168Z,101020.44
2023-04-27T22:45:09.562Z,101021.28
2023-04-27T22:47:35.269Z,101011.31
2023-04-27T22:50:01.051Z,101003.88
2023-04-27T22:52:26.832Z,101006.66
2023-04-27T22:54:52.548Z,101019.34
2023-04-27T22:57:18.207Z,101005.78
2023-04-27T22:59:43.914Z,101003.03
2023-04-27T23:02:10.262Z,101006.66
2023-04-27T23:04:35.948Z,101008.56
2023-04-27T23:07:01.606Z,101009.41
2023-04-27T23:09:27.278Z,101016.00
2023-04-27T23:11:52.925Z,101010.50
2023-04-27T23:14:18.577Z,101010.50
2023-04-27T23:16:45.559Z,101002.22
2023-04-27T23:19:11.972Z,100990.34
2023-04-27T23:21:37.823Z,100986.75
2023-04-27T23:24:03.784Z,100988.41
2023-04-27T23:26:29.489Z,100985.66
2023-04-27T23:28:55.357Z,100982.06
2023-04-27T23:31:22.386Z,100977.38
2023-04-27T23:33:48.145Z,100979.31
2023-04-27T23:36:13.807Z,100972.97
2023-04-27T23:38:39.583Z,100971.03
2023-04-27T23:41:05.240Z,100969.09
2023-04-27T23:43:30.981Z,100971.03
2023-04-27T23:45:56.644Z,100969.09
2023-04-27T23:48:22.337Z,100963.03
2023-04-27T23:50:48.030Z,100959.16
2023-04-27T23:53:13.818Z,100966.63
2023-04-27T23:55:39.542Z,100960.81
2023-04-27T23:58:05.192Z,100952.81
